Terminal Aerodrome Forecast
Issued by NWS

Home | Current Version | Previous Version | Text Only | Print | Product List | Glossary On
Versions: 1 2 3 4 5 6 7 8 9 10 11 12 13 14 15 16 17 18 19 20 21 22 23
000
FTAK31 PAFA 272347
TAFAOT
TAF
PAOT 272347Z 2800/2824 09023G30KT 6SM BLSN BKN120
     FM280600 10028G38KT 2SM BLSN OVC200
     FM281200 10040KT 1SM BLSN OVC080
     FM281500 10045KT 1/2SM -SN BLSN VV005=

USA.gov is the U.S. government's official web portal to all federal, state and local government web resources and services.